createdAt,value
2023-04-28T00:02:08.049Z,2.83
2023-04-28T00:05:08.163Z,3.03
2023-04-28T00:08:17.346Z,3.40
2023-04-28T00:11:05.526Z,2.67
2023-04-28T00:14:11.997Z,2.87
2023-04-28T00:17:08.962Z,3.07
2023-04-28T00:19:56.004Z,2.93
2023-04-28T00:22:42.882Z,3.03
2023-04-28T00:25:30.944Z,2.97
2023-04-28T00:28:30.509Z,3.20
2023-04-28T00:31:20.613Z,2.97
2023-04-28T00:34:07.366Z,2.93
2023-04-28T00:36:54.245Z,2.50
2023-04-28T00:39:47.146Z,2.97
2023-04-28T00:42:35.298Z,3.10
2023-04-28T00:45:35.290Z,3.20
2023-04-28T00:48:22.656Z,3.20
2023-04-28T00:51:13.229Z,3.50
2023-04-28T00:54:01.936Z,2.80
2023-04-28T00:56:49.055Z,3.60
2023-04-28T00:59:37.789Z,3.57
2023-04-28T01:02:25.091Z,3.23
2023-04-28T01:05:13.434Z,2.90
2023-04-28T01:07:59.993Z,3.27
2023-04-28T01:10:46.637Z,3.23
2023-04-28T01:13:48.194Z,3.00
2023-04-28T01:16:38.455Z,3.67
2023-04-28T01:19:26.179Z,3.40
2023-04-28T01:22:15.397Z,3.80
2023-04-28T01:25:05.551Z,3.57
2023-04-28T01:27:53.414Z,3.03
2023-04-28T01:30:39.823Z,2.63
2023-04-28T01:33:27.006Z,3.30
2023-04-28T01:36:13.872Z,3.40
2023-04-28T01:39:00.859Z,3.10
2023-04-28T01:41:48.753Z,2.77
2023-04-28T01:44:35.546Z,2.80
2023-04-28T01:47:22.266Z,2.93
2023-04-28T01:50:09.423Z,3.37
2023-04-28T01:52:56.193Z,3.10
2023-04-28T01:55:42.879Z,2.60
2023-04-28T01:58:31.027Z,2.90
2023-04-28T02:01:17.883Z,2.53
2023-04-28T02:04:04.716Z,2.27
2023-04-28T02:06:58.813Z,2.33
2023-04-28T02:09:47.085Z,2.50
2023-04-28T02:12:33.553Z,3.10
2023-04-28T02:15:21.902Z,2.63
2023-04-28T02:18:08.609Z,2.77
2023-04-28T02:20:59.411Z,2.30
2023-04-28T02:23:47.748Z,2.57
2023-04-28T02:26:44.619Z,2.70
2023-04-28T02:29:36.015Z,2.70
2023-04-28T02:32:27.178Z,3.10
2023-04-28T02:35:14.359Z,2.90
2023-04-28T02:38:01.202Z,2.73
2023-04-28T02:40:47.940Z,2.50
2023-04-28T02:43:35.271Z,3.03
2023-04-28T02:46:26.186Z,2.90
2023-04-28T02:49:15.609Z,2.67
2023-04-28T02:52:03.341Z,2.60
2023-04-28T02:54:55.438Z,2.67
2023-04-28T02:57:43.052Z,3.00
2023-04-28T03:00:31.477Z,2.57
2023-04-28T03:03:18.576Z,2.90
2023-04-28T03:06:07.560Z,2.77
2023-04-28T03:08:55.622Z,2.63
2023-04-28T03:11:42.820Z,2.30
2023-04-28T03:14:29.605Z,2.70
2023-04-28T03:17:16.581Z,3.17
2023-04-28T03:20:05.084Z,2.70
2023-04-28T03:22:53.421Z,2.90
2023-04-28T03:25:40.035Z,2.70
2023-04-28T03:28:27.000Z,2.60
2023-04-28T03:31:13.746Z,3.17
2023-04-28T03:34:00.691Z,3.33
2023-04-28T03:36:47.560Z,2.90
2023-04-28T03:39:44.461Z,3.17
2023-04-28T03:42:31.266Z,3.20
2023-04-28T03:45:27.877Z,2.60
2023-04-28T03:48:14.702Z,2.97
2023-04-28T03:51:01.393Z,3.10
2023-04-28T03:53:48.207Z,3.00
2023-04-28T03:56:48.131Z,3.10
2023-04-28T03:59:35.823Z,2.97
2023-04-28T04:02:22.927Z,2.83
2023-04-28T04:05:09.963Z,2.67
2023-04-28T04:07:57.035Z,2.70
2023-04-28T04:10:43.887Z,2.70
2023-04-28T04:13:32.270Z,2.80
2023-04-28T04:16:19.384Z,2.83
2023-04-28T04:19:06.599Z,4.00
2023-04-28T04:22:04.577Z,3.93
2023-04-28T04:24:51.291Z,3.00
2023-04-28T04:27:38.203Z,2.67
2023-04-28T04:30:26.475Z,3.17
2023-04-28T04:33:13.247Z,2.97
2023-04-28T04:36:00.171Z,3.10
2023-04-28T04:38:47.697Z,3.00
2023-04-28T04:41:38.528Z,2.70
2023-04-28T04:44:46.949Z,3.03
2023-04-28T04:47:49.485Z,2.50
2023-04-28T04:50:38.521Z,2.67
2023-04-28T04:53:27.282Z,2.47
2023-04-28T04:56:15.955Z,3.00
2023-04-28T04:59:05.468Z,3.17
2023-04-28T05:02:04.325Z,2.40
2023-04-28T05:05:01.754Z,3.07
2023-04-28T05:07:56.736Z,2.40
2023-04-28T05:10:43.442Z,2.20
2023-04-28T05:13:31.787Z,3.00
2023-04-28T05:16:23.624Z,2.17
2023-04-28T05:19:31.593Z,2.70
2023-04-28T05:22:20.044Z,2.43
2023-04-28T05:25:09.257Z,2.40
2023-04-28T05:27:57.899Z,2.50
2023-04-28T05:30:45.810Z,1.80
2023-04-28T05:33:33.286Z,1.90
2023-04-28T05:36:20.161Z,2.00
2023-04-28T05:39:08.353Z,1.90
2023-04-28T05:41:54.918Z,2.60
2023-04-28T05:44:43.081Z,2.93
2023-04-28T05:47:31.335Z,2.73
2023-04-28T05:50:18.149Z,2.93
2023-04-28T05:53:05.651Z,2.67
2023-04-28T05:55:53.548Z,2.87
2023-04-28T05:58:41.665Z,2.63
2023-04-28T06:01:28.747Z,3.47
2023-04-28T06:04:15.979Z,7.93
2023-04-28T06:07:06.316Z,4.80
2023-04-28T06:09:53.716Z,3.30
2023-04-28T06:12:41.843Z,3.20
2023-04-28T06:15:29.527Z,3.20
2023-04-28T06:18:16.935Z,3.30
2023-04-28T06:21:03.854Z,3.20
2023-04-28T06:23:50.498Z,2.80
2023-04-28T06:26:37.279Z,2.93
2023-04-28T06:29:25.552Z,2.90
2023-04-28T06:32:12.458Z,2.60
2023-04-28T06:34:59.034Z,3.20
2023-04-28T06:37:46.481Z,2.60
2023-04-28T06:40:34.797Z,2.77
2023-04-28T06:43:22.486Z,3.07
2023-04-28T06:46:30.239Z,2.80
2023-04-28T06:49:17.335Z,3.00
2023-04-28T06:52:04.123Z,2.50
2023-04-28T06:54:51.406Z,2.90
2023-04-28T06:57:39.069Z,2.47
2023-04-28T07:00:26.074Z,2.63
2023-04-28T07:03:14.303Z,2.70
2023-04-28T07:06:01.207Z,2.93
2023-04-28T07:08:48.099Z,2.53
2023-04-28T07:11:34.858Z,2.83
2023-04-28T07:14:21.720Z,2.43
2023-04-28T07:17:09.007Z,2.27
2023-04-28T07:19:57.213Z,2.37
2023-04-28T07:22:43.674Z,1.67
2023-04-28T07:25:30.528Z,2.30
2023-04-28T07:28:17.388Z,2.77
2023-04-28T07:31:04.175Z,2.60
2023-04-28T07:33:50.988Z,2.37
2023-04-28T07:36:39.329Z,2.73
2023-04-28T07:39:25.886Z,1.93
2023-04-28T07:42:12.951Z,2.57
2023-04-28T07:44:59.581Z,2.23
2023-04-28T07:47:46.372Z,2.47
2023-04-28T07:50:33.070Z,2.50
2023-04-28T07:53:21.340Z,2.57
2023-04-28T07:56:08.126Z,2.20
2023-04-28T07:58:54.560Z,2.33
2023-04-28T08:01:41.463Z,2.30
2023-04-28T08:04:28.571Z,2.87
2023-04-28T08:07:15.718Z,2.63
2023-04-28T08:10:03.637Z,3.13
2023-04-28T08:12:50.266Z,2.47
2023-04-28T08:15:37.149Z,2.50
2023-04-28T08:18:24.011Z,3.20
2023-04-28T08:21:11.266Z,2.90
2023-04-28T08:23:57.634Z,3.13
2023-04-28T08:26:46.282Z,3.43
2023-04-28T08:29:33.744Z,3.73
2023-04-28T08:32:20.405Z,3.13
2023-04-28T08:35:08.085Z,3.27
2023-04-28T08:37:54.804Z,3.07
2023-04-28T08:40:42.919Z,3.07
2023-04-28T08:43:31.206Z,3.27
2023-04-28T08:46:19.578Z,3.37
2023-04-28T08:49:08.971Z,3.37
2023-04-28T08:52:00.315Z,3.13
2023-04-28T08:54:50.358Z,3.30
2023-04-28T08:57:44.763Z,2.80
2023-04-28T09:00:32.802Z,3.50
2023-04-28T09:03:19.856Z,2.70
2023-04-28T09:06:06.492Z,2.70
2023-04-28T09:08:53.773Z,3.03
2023-04-28T09:11:52.197Z,3.27
2023-04-28T09:14:39.810Z,3.00
2023-04-28T09:17:27.951Z,3.37
2023-04-28T09:20:21.025Z,3.10
2023-04-28T09:23:16.060Z,2.90
2023-04-28T09:26:04.740Z,2.97
2023-04-28T09:28:51.997Z,2.97
2023-04-28T09:31:40.868Z,3.60
2023-04-28T09:34:45.442Z,3.43
2023-04-28T09:37:32.827Z,3.40
2023-04-28T09:40:20.710Z,2.97
2023-04-28T09:43:24.629Z,3.43
2023-04-28T09:46:11.246Z,3.70
2023-04-28T09:49:03.228Z,3.80
2023-04-28T09:51:51.341Z,3.73
2023-04-28T09:54:38.337Z,3.40
2023-04-28T09:57:25.396Z,3.53
2023-04-28T10:00:12.633Z,4.57
2023-04-28T10:03:00.244Z,3.53
2023-04-28T10:05:47.464Z,3.90
2023-04-28T10:08:36.101Z,3.87
2023-04-28T10:11:23.016Z,4.33
2023-04-28T10:14:10.029Z,3.50
2023-04-28T10:17:00.445Z,3.57
2023-04-28T10:19:48.204Z,3.93
2023-04-28T10:22:52.661Z,3.90
2023-04-28T10:25:43.684Z,3.70
2023-04-28T10:28:31.082Z,4.20
2023-04-28T10:31:20.868Z,3.67
2023-04-28T10:34:29.560Z,3.57
2023-04-28T10:37:19.061Z,4.40
2023-04-28T10:40:34.180Z,3.97
2023-04-28T10:43:40.288Z,4.13
2023-04-28T10:46:26.978Z,3.97
2023-04-28T10:49:13.716Z,3.57
2023-04-28T10:52:00.577Z,4.60
2023-04-28T10:55:33.712Z,3.80
2023-04-28T10:58:34.067Z,3.60
2023-04-28T11:01:30.889Z,4.30
2023-04-28T11:04:18.368Z,3.90
2023-04-28T11:07:13.910Z,3.83
2023-04-28T11:10:00.634Z,4.20
2023-04-28T11:13:20.620Z,3.87
2023-04-28T11:16:08.107Z,3.70
2023-04-28T11:19:00.198Z,3.73
2023-04-28T11:21:48.274Z,4.30
2023-04-28T11:24:35.033Z,4.03
2023-04-28T11:27:25.302Z,3.80
2023-04-28T11:30:22.341Z,3.60
2023-04-28T11:33:10.525Z,3.83
2023-04-28T11:35:59.156Z,3.23
2023-04-28T11:38:49.514Z,4.00
2023-04-28T11:41:37.350Z,3.90
2023-04-28T11:44:25.501Z,3.93
2023-04-28T11:47:11.974Z,3.70
2023-04-28T11:49:58.990Z,3.30
2023-04-28T11:52:53.804Z,3.53
2023-04-28T11:55:40.464Z,4.00
2023-04-28T11:58:27.973Z,3.67
2023-04-28T12:01:15.845Z,4.73
2023-04-28T12:04:03.477Z,4.07
2023-04-28T12:07:00.373Z,3.83
2023-04-28T12:09:49.554Z,3.83
2023-04-28T12:12:49.013Z,4.10
2023-04-28T12:15:42.186Z,3.53
2023-04-28T12:18:28.786Z,3.80
2023-04-28T12:21:22.752Z,3.60
2023-04-28T12:24:17.385Z,3.53
2023-04-28T12:27:21.884Z,4.00
2023-04-28T12:30:26.579Z,3.83
2023-04-28T12:33:25.016Z,3.93
2023-04-28T12:36:12.213Z,3.80
2023-04-28T12:38:59.282Z,3.53
2023-04-28T12:41:45.822Z,3.57
2023-04-28T12:44:38.271Z,4.23
2023-04-28T12:47:25.201Z,4.10
2023-04-28T12:50:12.118Z,4.13
2023-04-28T12:52:58.764Z,4.20
2023-04-28T12:55:45.380Z,4.00
2023-04-28T12:58:32.312Z,4.13
2023-04-28T13:01:20.509Z,4.13
2023-04-28T13:04:07.306Z,4.03
2023-04-28T13:06:54.500Z,3.83
2023-04-28T13:09:43.007Z,4.20
2023-04-28T13:12:30.118Z,4.50
2023-04-28T13:15:18.670Z,4.13
2023-04-28T13:18:08.175Z,4.23
2023-04-28T13:20:54.778Z,4.30
2023-04-28T13:23:42.833Z,4.23
2023-04-28T13:26:30.386Z,7.87
2023-04-28T13:29:18.030Z,5.33
2023-04-28T13:32:05.613Z,4.20
2023-04-28T13:34:54.132Z,3.87
2023-04-28T13:37:45.802Z,4.93
2023-04-28T13:40:33.761Z,4.17
2023-04-28T13:43:20.337Z,3.93
2023-04-28T13:46:08.658Z,4.13
2023-04-28T13:48:56.023Z,4.67
2023-04-28T13:51:45.715Z,4.97
2023-04-28T13:54:32.256Z,4.57
2023-04-28T13:57:19.184Z,4.87
2023-04-28T14:00:07.447Z,3.90
2023-04-28T14:02:54.399Z,5.27
2023-04-28T14:05:48.886Z,4.10
2023-04-28T14:08:37.702Z,4.60
2023-04-28T14:11:24.575Z,4.67
2023-04-28T14:14:11.224Z,4.73
2023-04-28T14:16:57.978Z,4.90
2023-04-28T14:19:45.574Z,4.93
2023-04-28T14:22:32.064Z,5.37
2023-04-28T14:25:20.326Z,4.87
2023-04-28T14:28:06.984Z,4.30
2023-04-28T14:30:54.769Z,4.63
2023-04-28T14:33:41.703Z,4.33
2023-04-28T14:36:28.734Z,4.37
2023-04-28T14:39:15.305Z,4.23
2023-04-28T14:42:04.001Z,4.80
2023-04-28T14:44:51.729Z,4.80
2023-04-28T14:47:40.461Z,4.13
2023-04-28T14:50:27.231Z,4.00
2023-04-28T14:53:13.920Z,4.53
2023-04-28T14:56:14.722Z,4.47
2023-04-28T14:59:06.120Z,4.63
2023-04-28T15:01:53.055Z,4.97
2023-04-28T15:04:40.061Z,4.80
2023-04-28T15:07:31.302Z,4.73
2023-04-28T15:10:18.519Z,4.50
2023-04-28T15:13:05.158Z,4.53
2023-04-28T15:15:53.249Z,4.77
2023-04-28T15:18:40.033Z,4.97
2023-04-28T15:21:28.641Z,4.60
2023-04-28T15:24:15.820Z,4.93
2023-04-28T15:27:04.131Z,4.90
2023-04-28T15:29:50.772Z,4.80
2023-04-28T15:32:38.897Z,4.63
2023-04-28T15:35:25.399Z,5.13
2023-04-28T15:38:12.225Z,4.50
2023-04-28T15:40:59.019Z,4.40
2023-04-28T15:43:46.249Z,4.80
2023-04-28T15:46:33.141Z,4.77
2023-04-28T15:49:21.637Z,4.80
2023-04-28T15:52:08.163Z,5.40
2023-04-28T15:54:55.773Z,5.83
2023-04-28T15:57:42.933Z,5.87
2023-04-28T16:00:29.385Z,5.30
2023-04-28T16:03:16.245Z,5.17
2023-04-28T16:06:04.652Z,6.17
2023-04-28T16:08:51.206Z,5.93
2023-04-28T16:11:38.673Z,7.40
2023-04-28T16:14:25.241Z,9.53
2023-04-28T16:17:12.028Z,9.07
2023-04-28T16:19:58.714Z,8.57
2023-04-28T16:22:47.374Z,10.60
2023-04-28T16:25:34.205Z,7.47
2023-04-28T16:28:21.085Z,6.97
2023-04-28T16:31:08.055Z,5.43
2023-04-28T16:33:55.355Z,6.40
2023-04-28T16:36:42.317Z,5.30
2023-04-28T16:39:30.323Z,6.20
2023-04-28T16:42:16.720Z,5.10
2023-04-28T16:45:03.721Z,5.50
2023-04-28T16:47:50.518Z,6.17
2023-04-28T16:50:39.106Z,6.73
2023-04-28T16:53:27.012Z,5.70
2023-04-28T16:56:15.246Z,6.63
2023-04-28T16:59:01.987Z,5.33
2023-04-28T17:01:49.074Z,5.33
2023-04-28T17:04:37.225Z,5.20
2023-04-28T17:07:25.610Z,6.80
2023-04-28T17:10:12.429Z,10.90
2023-04-28T17:13:00.663Z,16.07
2023-04-28T17:15:54.548Z,20.80
2023-04-28T17:18:41.459Z,7.03
2023-04-28T17:21:28.816Z,10.70
2023-04-28T17:24:15.096Z,7.80
2023-04-28T17:27:01.915Z,5.50
2023-04-28T17:29:51.971Z,8.47
2023-04-28T17:32:39.162Z,7.77
2023-04-28T17:35:25.890Z,6.07
2023-04-28T17:38:12.392Z,6.20
2023-04-28T17:40:59.219Z,7.30
2023-04-28T17:43:46.075Z,6.40
2023-04-28T17:46:34.354Z,5.77
2023-04-28T17:49:21.003Z,5.13
2023-04-28T17:52:07.748Z,4.57
2023-04-28T17:54:54.493Z,4.57
2023-04-28T17:57:41.302Z,4.67
2023-04-28T18:00:27.929Z,4.53
2023-04-28T18:03:16.354Z,5.07
2023-04-28T18:06:04.893Z,5.10
2023-04-28T18:08:51.501Z,6.17
2023-04-28T18:11:38.707Z,6.03
2023-04-28T18:14:25.893Z,5.07
2023-04-28T18:17:12.505Z,5.40
2023-04-28T18:20:00.705Z,7.07
2023-04-28T18:22:47.276Z,8.97
2023-04-28T18:25:34.014Z,7.17
2023-04-28T18:28:20.740Z,6.17
2023-04-28T18:31:07.771Z,5.80
2023-04-28T18:33:55.303Z,6.27
2023-04-28T18:36:43.175Z,5.80
2023-04-28T18:39:29.985Z,5.67
2023-04-28T18:42:16.908Z,5.80
2023-04-28T18:45:04.518Z,6.07
2023-04-28T18:47:51.259Z,5.57
2023-04-28T18:50:37.905Z,5.23
2023-04-28T18:53:26.083Z,5.60
2023-04-28T18:56:13.230Z,5.70
2023-04-28T18:58:59.807Z,5.33
2023-04-28T19:01:46.610Z,4.97
2023-04-28T19:04:33.514Z,5.90
2023-04-28T19:07:20.267Z,6.47
2023-04-28T19:10:09.613Z,5.47
2023-04-28T19:12:57.505Z,6.13
2023-04-28T19:15:44.296Z,5.57
2023-04-28T19:18:31.954Z,6.30
2023-04-28T19:21:18.872Z,6.77
2023-04-28T19:24:05.549Z,5.97
2023-04-28T19:26:54.765Z,6.50
2023-04-28T19:29:42.586Z,7.40
2023-04-28T19:32:29.980Z,7.77
2023-04-28T19:35:16.667Z,7.47
2023-04-28T19:38:03.456Z,7.63
2023-04-28T19:40:50.746Z,7.43
2023-04-28T19:43:38.835Z,6.90
2023-04-28T19:46:25.931Z,6.10
2023-04-28T19:49:12.822Z,5.73
2023-04-28T19:51:59.424Z,5.87
2023-04-28T19:54:46.219Z,6.23
2023-04-28T19:57:33.029Z,6.27
2023-04-28T20:00:21.793Z,6.57
2023-04-28T20:03:08.545Z,6.63
2023-04-28T20:05:54.966Z,6.47
2023-04-28T20:08:41.827Z,7.23
2023-04-28T20:11:28.732Z,7.53
2023-04-28T20:14:15.383Z,6.60
2023-04-28T20:17:05.228Z,6.30
2023-04-28T20:19:52.794Z,8.00
2023-04-28T20:22:40.825Z,7.43
2023-04-28T20:25:27.883Z,7.03
2023-04-28T20:28:14.531Z,6.90
2023-04-28T20:31:01.486Z,6.60
2023-04-28T20:33:49.278Z,6.70
2023-04-28T20:36:36.250Z,6.53
2023-04-28T20:39:22.791Z,6.30
2023-04-28T20:42:10.174Z,6.53
2023-04-28T20:44:56.889Z,6.80
2023-04-28T20:47:43.746Z,6.87
2023-04-28T20:50:33.429Z,7.13
2023-04-28T20:53:20.163Z,7.80
2023-04-28T20:56:07.358Z,10.97
2023-04-28T20:58:55.445Z,10.07
2023-04-28T21:01:42.255Z,7.33
2023-04-28T21:04:29.099Z,7.97
2023-04-28T21:07:17.672Z,9.80
2023-04-28T21:10:04.426Z,8.67
2023-04-28T21:12:51.021Z,7.90
2023-04-28T21:15:38.258Z,7.97
2023-04-28T21:18:24.962Z,7.93
2023-04-28T21:21:12.233Z,6.53
2023-04-28T21:24:00.433Z,7.40
2023-04-28T21:26:47.690Z,6.33
2023-04-28T21:29:35.030Z,6.23
2023-04-28T21:32:21.975Z,6.60
2023-04-28T21:35:09.572Z,6.27
2023-04-28T21:37:56.540Z,6.33
2023-04-28T21:40:49.657Z,6.40
2023-04-28T21:43:40.461Z,7.13
2023-04-28T21:46:27.824Z,7.30
2023-04-28T21:49:14.843Z,6.50
2023-04-28T21:52:01.716Z,7.00
2023-04-28T21:54:48.507Z,6.50
2023-04-28T21:57:37.056Z,6.87
2023-04-28T22:00:24.118Z,6.60
2023-04-28T22:03:11.714Z,7.20
2023-04-28T22:05:58.289Z,6.13
2023-04-28T22:08:45.019Z,6.20
2023-04-28T22:11:32.356Z,5.90
2023-04-28T22:14:38.796Z,6.77
2023-04-28T22:17:27.550Z,6.93
2023-04-28T22:20:15.090Z,6.93
2023-04-28T22:23:01.853Z,6.70
2023-04-28T22:25:48.506Z,6.97
2023-04-28T22:28:35.452Z,7.27
2023-04-28T22:31:23.473Z,6.90
2023-04-28T22:34:10.464Z,6.10
2023-04-28T22:36:57.326Z,6.70
2023-04-28T22:39:44.153Z,7.27
2023-04-28T22:42:30.830Z,6.60
2023-04-28T22:45:17.726Z,6.50
2023-04-28T22:48:06.463Z,6.53
2023-04-28T22:50:53.184Z,5.73
2023-04-28T22:53:39.902Z,5.30
2023-04-28T22:56:26.853Z,6.33
2023-04-28T22:59:13.650Z,5.30
2023-04-28T23:02:00.618Z,5.20
2023-04-28T23:04:48.443Z,6.07
2023-04-28T23:07:35.144Z,5.63
2023-04-28T23:10:21.770Z,6.23
2023-04-28T23:13:08.486Z,6.80
2023-04-28T23:15:59.102Z,5.97
2023-04-28T23:18:45.805Z,5.97
2023-04-28T23:21:33.868Z,6.40
2023-04-28T23:24:20.560Z,5.87
2023-04-28T23:27:07.488Z,6.83
2023-04-28T23:29:54.487Z,7.00
2023-04-28T23:32:42.468Z,6.60
2023-04-28T23:35:29.121Z,6.73
2023-04-28T23:38:17.066Z,6.83
2023-04-28T23:41:06.544Z,6.10
2023-04-28T23:43:53.149Z,6.57
2023-04-28T23:46:39.818Z,6.93
2023-04-28T23:49:26.604Z,6.40
2023-04-28T23:52:13.415Z,7.17
2023-04-28T23:55:01.576Z,6.17
2023-04-28T23:57:48.423Z,6.77
